sensor_id;sensor_type;location;lat;lon;timestamp;temperature;humidity
9802;DHT22;4940;50.900;4.672;2022-10-22T00:04:52;15.30;99.90
9802;DHT22;4940;50.900;4.672;2022-10-22T00:07:22;15.30;99.90
9802;DHT22;4940;50.900;4.672;2022-10-22T00:12:18;15.30;99.90
9802;DHT22;4940;50.900;4.672;2022-10-22T00:22:08;15.30;99.90
9802;DHT22;4940;50.900;4.672;2022-10-22T00:24:37;15.30;99.90
9802;DHT22;4940;50.900;4.672;2022-10-22T00:27:05;15.30;99.90
9802;DHT22;4940;50.900;4.672;2022-10-22T00:29:33;15.30;99.90
9802;DHT22;4940;50.900;4.672;2022-10-22T00:32:01;15.30;99.90
9802;DHT22;4940;50.900;4.672;2022-10-22T00:36:56;15.30;99.90
9802;DHT22;4940;50.900;4.672;2022-10-22T00:39:25;15.40;99.90
9802;DHT22;4940;50.900;4.672;2022-10-22T00:41:54;15.30;99.90
9802;DHT22;4940;50.900;4.672;2022-10-22T00:47:29;15.20;99.90
9802;DHT22;4940;50.900;4.672;2022-10-22T00:49:58;15.30;99.90
9802;DHT22;4940;50.900;4.672;2022-10-22T00:52:26;15.30;99.90
9802;DHT22;4940;50.900;4.672;2022-10-22T00:54:54;15.20;99.90
9802;DHT22;4940;50.900;4.672;2022-10-22T00:59:50;15.10;99.90
9802;DHT22;4940;50.900;4.672;2022-10-22T01:04:46;15.20;99.90
9802;DHT22;4940;50.900;4.672;2022-10-22T01:07:16;15.30;99.90
9802;DHT22;4940;50.900;4.672;2022-10-22T01:09:47;15.10;99.90
9802;DHT22;4940;50.900;4.672;2022-10-22T01:12:21;14.90;99.90
9802;DHT22;4940;50.900;4.672;2022-10-22T01:15:04;15.00;99.90
9802;DHT22;4940;50.900;4.672;2022-10-22T01:17:37;15.00;99.90
9802;DHT22;4940;50.900;4.672;2022-10-22T01:20:16;15.00;99.90
9802;DHT22;4940;50.900;4.672;2022-10-22T01:22:57;15.00;99.90
9802;DHT22;4940;50.900;4.672;2022-10-22T01:25:30;15.00;99.90
9802;DHT22;4940;50.900;4.672;2022-10-22T01:28:07;14.80;99.90
9802;DHT22;4940;50.900;4.672;2022-10-22T01:30:40;14.90;99.90
9802;DHT22;4940;50.900;4.672;2022-10-22T01:33:09;14.90;99.90
9802;DHT22;4940;50.900;4.672;2022-10-22T01:35:41;14.90;99.90
9802;DHT22;4940;50.900;4.672;2022-10-22T01:38:11;14.90;99.90
9802;DHT22;4940;50.900;4.672;2022-10-22T01:40:39;18.30;99.90
9802;DHT22;4940;50.900;4.672;2022-10-22T01:43:08;14.90;99.90
9802;DHT22;4940;50.900;4.672;2022-10-22T01:45:38;14.90;99.90
9802;DHT22;4940;50.900;4.672;2022-10-22T01:48:19;14.90;99.90
9802;DHT22;4940;50.900;4.672;2022-10-22T01:51:19;14.90;99.90
9802;DHT22;4940;50.900;4.672;2022-10-22T01:53:52;14.90;99.90
9802;DHT22;4940;50.900;4.672;2022-10-22T01:56:29;14.90;99.90
9802;DHT22;4940;50.900;4.672;2022-10-22T01:59:04;14.80;99.90
9802;DHT22;4940;50.900;4.672;2022-10-22T02:01:38;14.80;99.90
9802;DHT22;4940;50.900;4.672;2022-10-22T02:04:12;14.80;99.90
9802;DHT22;4940;50.900;4.672;2022-10-22T02:06:43;14.80;99.90
9802;DHT22;4940;50.900;4.672;2022-10-22T02:09:12;14.70;99.90
9802;DHT22;4940;50.900;4.672;2022-10-22T02:11:40;14.80;99.90
9802;DHT22;4940;50.900;4.672;2022-10-22T02:14:08;14.80;99.90
9802;DHT22;4940;50.900;4.672;2022-10-22T02:16:39;14.70;99.90
9802;DHT22;4940;50.900;4.672;2022-10-22T02:19:13;14.70;99.90
9802;DHT22;4940;50.900;4.672;2022-10-22T02:26:39;14.70;99.90
9802;DHT22;4940;50.900;4.672;2022-10-22T02:29:11;14.70;99.90
9802;DHT22;4940;50.900;4.672;2022-10-22T02:31:42;14.70;99.90
9802;DHT22;4940;50.900;4.672;2022-10-22T02:34:14;14.50;99.90
9802;DHT22;4940;50.900;4.672;2022-10-22T02:36:42;14.50;99.90
9802;DHT22;4940;50.900;4.672;2022-10-22T02:39:12;14.60;99.90
9802;DHT22;4940;50.900;4.672;2022-10-22T02:41:40;14.60;99.90
9802;DHT22;4940;50.900;4.672;2022-10-22T02:44:09;14.60;99.90
9802;DHT22;4940;50.900;4.672;2022-10-22T02:46:37;14.60;99.90
9802;DHT22;4940;50.900;4.672;2022-10-22T02:51:33;14.50;99.90
9802;DHT22;4940;50.900;4.672;2022-10-22T03:01:22;14.50;99.90
9802;DHT22;4940;50.900;4.672;2022-10-22T03:06:17;14.40;99.90
9802;DHT22;4940;50.900;4.672;2022-10-22T03:08:45;14.40;99.90
9802;DHT22;4940;50.900;4.672;2022-10-22T03:11:13;14.30;99.90
9802;DHT22;4940;50.900;4.672;2022-10-22T03:13:40;14.40;99.90
9802;DHT22;4940;50.900;4.672;2022-10-22T03:16:07;14.40;99.90
9802;DHT22;4940;50.900;4.672;2022-10-22T03:18:35;14.40;99.90
9802;DHT22;4940;50.900;4.672;2022-10-22T03:21:07;14.40;99.90
9802;DHT22;4940;50.900;4.672;2022-10-22T03:23:36;14.40;99.90
9802;DHT22;4940;50.900;4.672;2022-10-22T03:26:06;14.30;99.90
9802;DHT22;4940;50.900;4.672;2022-10-22T03:28:34;14.30;99.90
9802;DHT22;4940;50.900;4.672;2022-10-22T03:38:24;14.20;99.90
9802;DHT22;4940;50.900;4.672;2022-10-22T03:43:20;14.20;99.90
9802;DHT22;4940;50.900;4.672;2022-10-22T03:45:48;14.20;99.90
9802;DHT22;4940;50.900;4.672;2022-10-22T03:50:42;14.20;99.90
9802;DHT22;4940;50.900;4.672;2022-10-22T03:55:39;14.20;99.90
9802;DHT22;4940;50.900;4.672;2022-10-22T03:58:07;14.30;99.90
9802;DHT22;4940;50.900;4.672;2022-10-22T04:00:36;14.30;99.90
9802;DHT22;4940;50.900;4.672;2022-10-22T04:05:31;14.30;99.90
9802;DHT22;4940;50.900;4.672;2022-10-22T04:15:20;14.40;99.90
9802;DHT22;4940;50.900;4.672;2022-10-22T04:17:49;14.50;99.90
9802;DHT22;4940;50.900;4.672;2022-10-22T04:22:44;14.60;99.90
9802;DHT22;4940;50.900;4.672;2022-10-22T04:25:11;14.60;99.90
9802;DHT22;4940;50.900;4.672;2022-10-22T04:30:07;14.70;99.90
9802;DHT22;4940;50.900;4.672;2022-10-22T04:32:34;14.70;99.90
9802;DHT22;4940;50.900;4.672;2022-10-22T04:35:03;14.70;99.90
9802;DHT22;4940;50.900;4.672;2022-10-22T04:37:30;14.60;99.90
9802;DHT22;4940;50.900;4.672;2022-10-22T04:39:58;14.60;99.90
9802;DHT22;4940;50.900;4.672;2022-10-22T04:52:16;14.40;99.90
9802;DHT22;4940;50.900;4.672;2022-10-22T04:54:44;14.40;99.90
9802;DHT22;4940;50.900;4.672;2022-10-22T04:59:39;14.30;99.90
9802;DHT22;4940;50.900;4.672;2022-10-22T05:02:06;14.30;99.90
9802;DHT22;4940;50.900;4.672;2022-10-22T05:07:01;14.30;99.90
9802;DHT22;4940;50.900;4.672;2022-10-22T05:09:30;14.20;99.90
9802;DHT22;4940;50.900;4.672;2022-10-22T05:14:24;14.30;99.90
9802;DHT22;4940;50.900;4.672;2022-10-22T05:16:52;14.20;99.90
9802;DHT22;4940;50.900;4.672;2022-10-22T05:19:20;14.30;99.90
9802;DHT22;4940;50.900;4.672;2022-10-22T05:21:48;14.20;99.90
9802;DHT22;4940;50.900;4.672;2022-10-22T05:24:16;14.40;99.90
9802;DHT22;4940;50.900;4.672;2022-10-22T05:26:44;14.40;99.90
9802;DHT22;4940;50.900;4.672;2022-10-22T05:29:12;14.50;99.90
9802;DHT22;4940;50.900;4.672;2022-10-22T05:36:34;14.50;99.90
9802;DHT22;4940;50.900;4.672;2022-10-22T05:41:29;14.60;99.90
9802;DHT22;4940;50.900;4.672;2022-10-22T05:43:58;14.60;99.90
9802;DHT22;4940;50.900;4.672;2022-10-22T05:46:27;14.60;99.90
9802;DHT22;4940;50.900;4.672;2022-10-22T05:48:56;14.60;99.90
9802;DHT22;4940;50.900;4.672;2022-10-22T05:51:25;14.60;99.90
9802;DHT22;4940;50.900;4.672;2022-10-22T05:53:53;14.70;99.90
9802;DHT22;4940;50.900;4.672;2022-10-22T05:56:21;14.70;99.90
9802;DHT22;4940;50.900;4.672;2022-10-22T06:01:19;14.70;99.90
9802;DHT22;4940;50.900;4.672;2022-10-22T06:03:47;14.70;99.90
9802;DHT22;4940;50.900;4.672;2022-10-22T06:06:18;14.80;99.90
9802;DHT22;4940;50.900;4.672;2022-10-22T06:08:46;14.80;99.90
9802;DHT22;4940;50.900;4.672;2022-10-22T06:16:10;14.80;99.90
9802;DHT22;4940;50.900;4.672;2022-10-22T06:18:39;14.80;99.90
9802;DHT22;4940;50.900;4.672;2022-10-22T06:21:07;14.80;99.90
9802;DHT22;4940;50.900;4.672;2022-10-22T06:23:35;14.90;99.90
9802;DHT22;4940;50.900;4.672;2022-10-22T06:26:03;14.90;99.90
9802;DHT22;4940;50.900;4.672;2022-10-22T06:28:30;14.90;99.90
9802;DHT22;4940;50.900;4.672;2022-10-22T06:30:58;14.90;99.90
9802;DHT22;4940;50.900;4.672;2022-10-22T06:36:02;15.00;99.90
9802;DHT22;4940;50.900;4.672;2022-10-22T06:41:02;15.10;99.90
9802;DHT22;4940;50.900;4.672;2022-10-22T06:45:58;15.10;99.90
9802;DHT22;4940;50.900;4.672;2022-10-22T06:50:55;15.10;99.90
9802;DHT22;4940;50.900;4.672;2022-10-22T07:00:44;15.30;99.90
9802;DHT22;4940;50.900;4.672;2022-10-22T07:03:12;15.30;99.90
9802;DHT22;4940;50.900;4.672;2022-10-22T07:05:40;15.40;99.90
9802;DHT22;4940;50.900;4.672;2022-10-22T07:08:08;15.40;99.90
9802;DHT22;4940;50.900;4.672;2022-10-22T07:25:21;15.90;99.90
9802;DHT22;4940;50.900;4.672;2022-10-22T07:30:17;16.00;99.90
9802;DHT22;4940;50.900;4.672;2022-10-22T07:37:39;16.10;99.90
9802;DHT22;4940;50.900;4.672;2022-10-22T07:40:07;16.20;99.90
9802;DHT22;4940;50.900;4.672;2022-10-22T07:42:36;16.20;99.90
9802;DHT22;4940;50.900;4.672;2022-10-22T07:49:57;16.60;99.90
9802;DHT22;4940;50.900;4.672;2022-10-22T07:52:25;16.60;99.90
9802;DHT22;4940;50.900;4.672;2022-10-22T07:54:52;16.30;99.90
9802;DHT22;4940;50.900;4.672;2022-10-22T07:59:48;16.70;99.90
9802;DHT22;4940;50.900;4.672;2022-10-22T08:09:38;16.90;99.90
9802;DHT22;4940;50.900;4.672;2022-10-22T08:12:05;16.90;99.90
9802;DHT22;4940;50.900;4.672;2022-10-22T08:17:01;17.10;99.90
9802;DHT22;4940;50.900;4.672;2022-10-22T08:19:28;17.10;99.90
9802;DHT22;4940;50.900;4.672;2022-10-22T08:34:17;17.10;99.90
9802;DHT22;4940;50.900;4.672;2022-10-22T08:41:46;17.50;99.90
9802;DHT22;4940;50.900;4.672;2022-10-22T08:44:32;17.60;99.90
9802;DHT22;4940;50.900;4.672;2022-10-22T08:47:17;17.80;99.90
9802;DHT22;4940;50.900;4.672;2022-10-22T08:49:52;17.60;99.90
9802;DHT22;4940;50.900;4.672;2022-10-22T08:54:52;17.80;99.90
9802;DHT22;4940;50.900;4.672;2022-10-22T08:57:35;17.70;99.90
9802;DHT22;4940;50.900;4.672;2022-10-22T09:00:10;17.70;99.90
9802;DHT22;4940;50.900;4.672;2022-10-22T09:02:46;17.70;99.90
9802;DHT22;4940;50.900;4.672;2022-10-22T09:05:28;17.80;99.90
9802;DHT22;4940;50.900;4.672;2022-10-22T09:07:59;17.80;99.90
9802;DHT22;4940;50.900;4.672;2022-10-22T09:10:30;17.90;99.90
9802;DHT22;4940;50.900;4.672;2022-10-22T09:15:26;16.20;99.90
9802;DHT22;4940;50.900;4.672;2022-10-22T09:18:02;18.10;99.90
9802;DHT22;4940;50.900;4.672;2022-10-22T09:20:37;18.20;99.90
9802;DHT22;4940;50.900;4.672;2022-10-22T09:23:18;18.30;99.90
9802;DHT22;4940;50.900;4.672;2022-10-22T09:25:48;18.40;99.90
9802;DHT22;4940;50.900;4.672;2022-10-22T09:30:44;18.60;99.90
9802;DHT22;4940;50.900;4.672;2022-10-22T09:33:13;18.90;99.90
9802;DHT22;4940;50.900;4.672;2022-10-22T09:35:47;19.30;99.90
9802;DHT22;4940;50.900;4.672;2022-10-22T09:38:18;19.60;99.90
9802;DHT22;4940;50.900;4.672;2022-10-22T09:40:47;20.10;99.90
9802;DHT22;4940;50.900;4.672;2022-10-22T09:43:15;20.10;99.90
9802;DHT22;4940;50.900;4.672;2022-10-22T09:45:44;20.20;99.90
9802;DHT22;4940;50.900;4.672;2022-10-22T09:48:17;20.20;99.90
9802;DHT22;4940;50.900;4.672;2022-10-22T09:50:48;20.10;99.90
9802;DHT22;4940;50.900;4.672;2022-10-22T09:53:19;20.30;99.90
9802;DHT22;4940;50.900;4.672;2022-10-22T09:55:50;20.10;99.90
9802;DHT22;4940;50.900;4.672;2022-10-22T10:00:47;20.00;99.90
9802;DHT22;4940;50.900;4.672;2022-10-22T10:03:19;19.80;99.90
9802;DHT22;4940;50.900;4.672;2022-10-22T10:05:51;19.90;99.90
9802;DHT22;4940;50.900;4.672;2022-10-22T10:08:19;19.80;99.90
9802;DHT22;4940;50.900;4.672;2022-10-22T10:10:48;19.80;99.90
9802;DHT22;4940;50.900;4.672;2022-10-22T10:13:36;19.80;99.90
9802;DHT22;4940;50.900;4.672;2022-10-22T10:16:12;19.70;99.90
9802;DHT22;4940;50.900;4.672;2022-10-22T10:18:53;19.10;99.90
9802;DHT22;4940;50.900;4.672;2022-10-22T10:21:29;19.50;99.90
9802;DHT22;4940;50.900;4.672;2022-10-22T10:24:04;19.60;99.90
9802;DHT22;4940;50.900;4.672;2022-10-22T10:26:38;19.40;99.90
9802;DHT22;4940;50.900;4.672;2022-10-22T10:29:21;19.60;99.90
9802;DHT22;4940;50.900;4.672;2022-10-22T10:32:15;20.10;99.90
9802;DHT22;4940;50.900;4.672;2022-10-22T10:34:54;20.20;99.90
9802;DHT22;4940;50.900;4.672;2022-10-22T10:37:28;20.20;99.90
9802;DHT22;4940;50.900;4.672;2022-10-22T10:40:09;20.30;99.90
9802;DHT22;4940;50.900;4.672;2022-10-22T10:42:43;20.40;99.90
9802;DHT22;4940;50.900;4.672;2022-10-22T10:45:16;20.50;99.90
9802;DHT22;4940;50.900;4.672;2022-10-22T10:48:00;20.40;99.90
9802;DHT22;4940;50.900;4.672;2022-10-22T10:50:38;20.40;99.90
9802;DHT22;4940;50.900;4.672;2022-10-22T10:53:15;20.40;99.90
9802;DHT22;4940;50.900;4.672;2022-10-22T10:55:56;20.60;99.90
9802;DHT22;4940;50.900;4.672;2022-10-22T10:58:33;20.60;99.90
9802;DHT22;4940;50.900;4.672;2022-10-22T11:01:11;20.60;99.90
9802;DHT22;4940;50.900;4.672;2022-10-22T11:04:01;20.50;99.90
9802;DHT22;4940;50.900;4.672;2022-10-22T11:06:32;20.40;99.90
9802;DHT22;4940;50.900;4.672;2022-10-22T11:09:05;20.30;99.90
9802;DHT22;4940;50.900;4.672;2022-10-22T11:11:37;20.50;99.90
9802;DHT22;4940;50.900;4.672;2022-10-22T11:14:10;20.60;99.90
9802;DHT22;4940;50.900;4.672;2022-10-22T11:16:43;20.60;99.90
9802;DHT22;4940;50.900;4.672;2022-10-22T11:19:17;20.80;99.90
9802;DHT22;4940;50.900;4.672;2022-10-22T11:21:49;20.70;99.90
9802;DHT22;4940;50.900;4.672;2022-10-22T11:24:24;20.70;99.90
9802;DHT22;4940;50.900;4.672;2022-10-22T11:26:55;20.70;99.90
9802;DHT22;4940;50.900;4.672;2022-10-22T11:29:26;20.80;99.90
9802;DHT22;4940;50.900;4.672;2022-10-22T11:31:55;20.60;99.90
9802;DHT22;4940;50.900;4.672;2022-10-22T11:34:25;20.80;99.90
9802;DHT22;4940;50.900;4.672;2022-10-22T11:36:54;20.90;99.90
9802;DHT22;4940;50.900;4.672;2022-10-22T11:39:36;20.90;99.90
9802;DHT22;4940;50.900;4.672;2022-10-22T11:42:06;20.90;99.90
9802;DHT22;4940;50.900;4.672;2022-10-22T11:44:48;20.90;99.90
9802;DHT22;4940;50.900;4.672;2022-10-22T11:47:24;20.90;99.90
9802;DHT22;4940;50.900;4.672;2022-10-22T11:49:58;20.90;99.90
9802;DHT22;4940;50.900;4.672;2022-10-22T11:52:39;20.90;99.90
9802;DHT22;4940;50.900;4.672;2022-10-22T11:58:28;21.10;99.90
9802;DHT22;4940;50.900;4.672;2022-10-22T12:00:57;21.00;99.90
9802;DHT22;4940;50.900;4.672;2022-10-22T12:03:43;21.10;99.90
9802;DHT22;4940;50.900;4.672;2022-10-22T12:06:22;21.10;99.90
9802;DHT22;4940;50.900;4.672;2022-10-22T12:08:58;21.10;99.90
9802;DHT22;4940;50.900;4.672;2022-10-22T12:11:27;21.20;99.90
9802;DHT22;4940;50.900;4.672;2022-10-22T12:14:13;21.20;99.90
9802;DHT22;4940;50.900;4.672;2022-10-22T12:16:44;21.20;99.90
9802;DHT22;4940;50.900;4.672;2022-10-22T12:19:13;21.20;99.90
9802;DHT22;4940;50.900;4.672;2022-10-22T12:21:42;21.10;99.90
9802;DHT22;4940;50.900;4.672;2022-10-22T12:24:13;21.00;99.90
9802;DHT22;4940;50.900;4.672;2022-10-22T12:29:12;21.20;99.90
9802;DHT22;4940;50.900;4.672;2022-10-22T12:31:41;21.10;99.90
9802;DHT22;4940;50.900;4.672;2022-10-22T12:34:13;21.00;99.90
9802;DHT22;4940;50.900;4.672;2022-10-22T12:36:41;21.00;99.90
9802;DHT22;4940;50.900;4.672;2022-10-22T12:39:12;20.90;99.90
9802;DHT22;4940;50.900;4.672;2022-10-22T12:44:12;20.80;99.90
9802;DHT22;4940;50.900;4.672;2022-10-22T12:46:41;20.80;99.90
9802;DHT22;4940;50.900;4.672;2022-10-22T12:49:14;20.80;99.90
9802;DHT22;4940;50.900;4.672;2022-10-22T12:51:43;20.80;99.90
9802;DHT22;4940;50.900;4.672;2022-10-22T12:54:21;20.80;99.90
9802;DHT22;4940;50.900;4.672;2022-10-22T12:56:49;24.00;99.90
9802;DHT22;4940;50.900;4.672;2022-10-22T12:59:20;20.70;99.90
9802;DHT22;4940;50.900;4.672;2022-10-22T13:01:48;20.60;99.90
9802;DHT22;4940;50.900;4.672;2022-10-22T13:04:22;20.70;99.90
9802;DHT22;4940;50.900;4.672;2022-10-22T13:07:15;20.70;99.90
9802;DHT22;4940;50.900;4.672;2022-10-22T13:09:44;20.60;99.90
9802;DHT22;4940;50.900;4.672;2022-10-22T13:12:13;20.60;99.90
9802;DHT22;4940;50.900;4.672;2022-10-22T13:14:43;20.70;99.90
9802;DHT22;4940;50.900;4.672;2022-10-22T13:17:13;20.50;99.90
9802;DHT22;4940;50.900;4.672;2022-10-22T13:19:47;20.50;99.90
9802;DHT22;4940;50.900;4.672;2022-10-22T13:22:31;20.50;99.90
9802;DHT22;4940;50.900;4.672;2022-10-22T13:25:02;20.50;99.90
9802;DHT22;4940;50.900;4.672;2022-10-22T13:27:30;20.50;99.90
9802;DHT22;4940;50.900;4.672;2022-10-22T13:30:02;20.50;99.90
9802;DHT22;4940;50.900;4.672;2022-10-22T13:32:35;19.30;99.90
9802;DHT22;4940;50.900;4.672;2022-10-22T13:35:03;20.40;99.90
9802;DHT22;4940;50.900;4.672;2022-10-22T13:37:31;20.40;99.90
9802;DHT22;4940;50.900;4.672;2022-10-22T13:42:27;20.20;99.90
9802;DHT22;4940;50.900;4.672;2022-10-22T13:47:27;20.30;99.90
9802;DHT22;4940;50.900;4.672;2022-10-22T13:49:56;20.30;99.90
9802;DHT22;4940;50.900;4.672;2022-10-22T13:52:35;20.30;99.90
9802;DHT22;4940;50.900;4.672;2022-10-22T13:55:13;20.10;99.90
9802;DHT22;4940;50.900;4.672;2022-10-22T13:57:41;20.20;99.90
9802;DHT22;4940;50.900;4.672;2022-10-22T14:00:11;20.30;99.90
9802;DHT22;4940;50.900;4.672;2022-10-22T14:02:41;20.30;99.90
9802;DHT22;4940;50.900;4.672;2022-10-22T14:05:08;20.30;99.90
9802;DHT22;4940;50.900;4.672;2022-10-22T14:07:36;20.20;99.90
9802;DHT22;4940;50.900;4.672;2022-10-22T14:10:13;20.20;99.90
9802;DHT22;4940;50.900;4.672;2022-10-22T14:12:41;20.20;99.90
9802;DHT22;4940;50.900;4.672;2022-10-22T14:15:10;20.30;99.90
9802;DHT22;4940;50.900;4.672;2022-10-22T14:17:41;20.40;99.90
9802;DHT22;4940;50.900;4.672;2022-10-22T14:20:14;20.40;99.90
9802;DHT22;4940;50.900;4.672;2022-10-22T14:22:44;20.40;99.90
9802;DHT22;4940;50.900;4.672;2022-10-22T14:25:13;20.60;99.90
9802;DHT22;4940;50.900;4.672;2022-10-22T14:27:41;20.40;99.90
9802;DHT22;4940;50.900;4.672;2022-10-22T14:30:12;20.40;99.90
9802;DHT22;4940;50.900;4.672;2022-10-22T14:32:40;20.40;99.90
9802;DHT22;4940;50.900;4.672;2022-10-22T14:35:11;20.30;99.90
9802;DHT22;4940;50.900;4.672;2022-10-22T14:40:08;20.10;99.90
9802;DHT22;4940;50.900;4.672;2022-10-22T14:42:39;20.10;99.90
9802;DHT22;4940;50.900;4.672;2022-10-22T14:45:12;20.10;99.90
9802;DHT22;4940;50.900;4.672;2022-10-22T14:47:41;20.00;99.90
9802;DHT22;4940;50.900;4.672;2022-10-22T14:50:08;20.00;99.90
9802;DHT22;4940;50.900;4.672;2022-10-22T14:55:03;19.90;99.90
9802;DHT22;4940;50.900;4.672;2022-10-22T14:57:31;19.90;99.90
9802;DHT22;4940;50.900;4.672;2022-10-22T14:59:58;19.90;99.90
9802;DHT22;4940;50.900;4.672;2022-10-22T15:02:25;19.90;99.90
9802;DHT22;4940;50.900;4.672;2022-10-22T15:04:54;19.90;99.90
9802;DHT22;4940;50.900;4.672;2022-10-22T15:07:21;19.90;99.90
9802;DHT22;4940;50.900;4.672;2022-10-22T15:12:17;19.80;99.90
9802;DHT22;4940;50.900;4.672;2022-10-22T15:14:45;19.80;99.90
9802;DHT22;4940;50.900;4.672;2022-10-22T15:19:39;19.80;99.90
9802;DHT22;4940;50.900;4.672;2022-10-22T15:22:10;19.80;99.90
9802;DHT22;4940;50.900;4.672;2022-10-22T15:24:37;19.80;99.90
9802;DHT22;4940;50.900;4.672;2022-10-22T15:27:04;19.80;99.90
9802;DHT22;4940;50.900;4.672;2022-10-22T15:29:32;19.80;99.90
9802;DHT22;4940;50.900;4.672;2022-10-22T15:31:59;19.80;99.90
9802;DHT22;4940;50.900;4.672;2022-10-22T15:34:28;19.70;99.90
9802;DHT22;4940;50.900;4.672;2022-10-22T15:36:56;19.70;99.90
9802;DHT22;4940;50.900;4.672;2022-10-22T15:39:26;20.30;99.90
9802;DHT22;4940;50.900;4.672;2022-10-22T15:41:53;19.70;99.90
9802;DHT22;4940;50.900;4.672;2022-10-22T15:44:22;19.70;99.90
9802;DHT22;4940;50.900;4.672;2022-10-22T15:46:50;19.60;99.90
9802;DHT22;4940;50.900;4.672;2022-10-22T15:49:19;19.60;99.90
9802;DHT22;4940;50.900;4.672;2022-10-22T15:51:47;19.60;99.90
9802;DHT22;4940;50.900;4.672;2022-10-22T15:54:16;19.60;99.90
9802;DHT22;4940;50.900;4.672;2022-10-22T15:56:45;19.60;99.90
9802;DHT22;4940;50.900;4.672;2022-10-22T15:59:14;19.50;99.90
9802;DHT22;4940;50.900;4.672;2022-10-22T16:01:42;19.40;99.90
9802;DHT22;4940;50.900;4.672;2022-10-22T16:04:10;19.40;99.90
9802;DHT22;4940;50.900;4.672;2022-10-22T16:06:38;19.30;99.90
9802;DHT22;4940;50.900;4.672;2022-10-22T16:09:08;19.30;99.90
9802;DHT22;4940;50.900;4.672;2022-10-22T16:11:35;19.30;99.90
9802;DHT22;4940;50.900;4.672;2022-10-22T16:14:04;19.20;99.90
9802;DHT22;4940;50.900;4.672;2022-10-22T16:16:33;19.30;99.90
9802;DHT22;4940;50.900;4.672;2022-10-22T16:21:28;19.00;99.90
9802;DHT22;4940;50.900;4.672;2022-10-22T16:23:56;19.00;99.90
9802;DHT22;4940;50.900;4.672;2022-10-22T16:31:19;18.70;99.90
9802;DHT22;4940;50.900;4.672;2022-10-22T16:33:46;18.60;99.90
9802;DHT22;4940;50.900;4.672;2022-10-22T16:36:17;18.50;99.90
9802;DHT22;4940;50.900;4.672;2022-10-22T16:38:45;18.70;99.90
9802;DHT22;4940;50.900;4.672;2022-10-22T16:41:14;18.40;99.90
9802;DHT22;4940;50.900;4.672;2022-10-22T16:43:42;18.30;99.90
9802;DHT22;4940;50.900;4.672;2022-10-22T16:48:43;18.30;99.90
9802;DHT22;4940;50.900;4.672;2022-10-22T16:51:13;18.10;99.90
9802;DHT22;4940;50.900;4.672;2022-10-22T17:01:05;18.10;99.90
9802;DHT22;4940;50.900;4.672;2022-10-22T17:06:02;17.90;99.90
9802;DHT22;4940;50.900;4.672;2022-10-22T17:08:30;17.80;99.90
9802;DHT22;4940;50.900;4.672;2022-10-22T17:13:25;17.70;99.90
9802;DHT22;4940;50.900;4.672;2022-10-22T17:16:00;17.70;99.90
9802;DHT22;4940;50.900;4.672;2022-10-22T17:23:25;17.40;99.90
9802;DHT22;4940;50.900;4.672;2022-10-22T17:25:57;17.40;99.90
9802;DHT22;4940;50.900;4.672;2022-10-22T17:28:25;17.40;99.90
9802;DHT22;4940;50.900;4.672;2022-10-22T17:31:02;17.30;99.90
9802;DHT22;4940;50.900;4.672;2022-10-22T17:38:25;17.10;99.90
9802;DHT22;4940;50.900;4.672;2022-10-22T17:48:15;16.90;99.90
9802;DHT22;4940;50.900;4.672;2022-10-22T17:50:42;16.90;99.90
9802;DHT22;4940;50.900;4.672;2022-10-22T17:53:10;16.90;99.90
9802;DHT22;4940;50.900;4.672;2022-10-22T17:55:38;16.70;99.90
9802;DHT22;4940;50.900;4.672;2022-10-22T18:12:52;16.50;99.90
9802;DHT22;4940;50.900;4.672;2022-10-22T18:15:19;17.30;99.90
9802;DHT22;4940;50.900;4.672;2022-10-22T18:25:10;16.20;99.90
9802;DHT22;4940;50.900;4.672;2022-10-22T18:30:07;16.10;99.90
9802;DHT22;4940;50.900;4.672;2022-10-22T18:37:30;16.00;99.90
9802;DHT22;4940;50.900;4.672;2022-10-22T18:47:24;15.70;99.90
9802;DHT22;4940;50.900;4.672;2022-10-22T19:02:08;15.70;99.90
9802;DHT22;4940;50.900;4.672;2022-10-22T19:04:37;15.60;99.90
9802;DHT22;4940;50.900;4.672;2022-10-22T19:11:59;15.60;99.90
9802;DHT22;4940;50.900;4.672;2022-10-22T19:14:27;15.50;99.90
9802;DHT22;4940;50.900;4.672;2022-10-22T19:19:22;15.40;99.90
9802;DHT22;4940;50.900;4.672;2022-10-22T19:21:51;15.40;99.90
9802;DHT22;4940;50.900;4.672;2022-10-22T19:24:19;15.40;99.90
9802;DHT22;4940;50.900;4.672;2022-10-22T19:26:47;15.40;99.90
9802;DHT22;4940;50.900;4.672;2022-10-22T19:29:16;15.30;99.90
9802;DHT22;4940;50.900;4.672;2022-10-22T19:31:43;15.20;99.90
9802;DHT22;4940;50.900;4.672;2022-10-22T19:39:07;15.30;99.90
9802;DHT22;4940;50.900;4.672;2022-10-22T19:41:35;15.30;99.90
9802;DHT22;4940;50.900;4.672;2022-10-22T19:48:58;15.20;99.90
9802;DHT22;4940;50.900;4.672;2022-10-22T19:51:28;15.20;99.90
9802;DHT22;4940;50.900;4.672;2022-10-22T19:53:59;15.20;99.90
9802;DHT22;4940;50.900;4.672;2022-10-22T19:56:28;15.20;99.90
9802;DHT22;4940;50.900;4.672;2022-10-22T20:03:51;15.10;99.90
9802;DHT22;4940;50.900;4.672;2022-10-22T20:06:19;15.10;99.90
9802;DHT22;4940;50.900;4.672;2022-10-22T20:11:16;15.10;99.90
9802;DHT22;4940;50.900;4.672;2022-10-22T20:13:45;15.10;99.90
9802;DHT22;4940;50.900;4.672;2022-10-22T20:16:14;15.10;99.90
9802;DHT22;4940;50.900;4.672;2022-10-22T20:18:42;15.10;99.90
9802;DHT22;4940;50.900;4.672;2022-10-22T20:21:12;15.10;99.90
9802;DHT22;4940;50.900;4.672;2022-10-22T20:23:41;15.10;99.90
9802;DHT22;4940;50.900;4.672;2022-10-22T20:26:08;15.00;99.90
9802;DHT22;4940;50.900;4.672;2022-10-22T20:31:08;15.00;99.90
9802;DHT22;4940;50.900;4.672;2022-10-22T20:33:36;14.90;99.90
9802;DHT22;4940;50.900;4.672;2022-10-22T20:36:05;14.90;99.90
9802;DHT22;4940;50.900;4.672;2022-10-22T20:41:01;14.80;99.90
9802;DHT22;4940;50.900;4.672;2022-10-22T20:48:26;14.70;99.90
9802;DHT22;4940;50.900;4.672;2022-10-22T20:53:24;14.70;99.90
9802;DHT22;4940;50.900;4.672;2022-10-22T20:55:53;14.70;99.90
9802;DHT22;4940;50.900;4.672;2022-10-22T20:58:22;14.70;99.90
9802;DHT22;4940;50.900;4.672;2022-10-22T21:00:50;14.70;99.90
9802;DHT22;4940;50.900;4.672;2022-10-22T21:05:46;14.50;99.90
9802;DHT22;4940;50.900;4.672;2022-10-22T21:10:42;14.80;99.90
9802;DHT22;4940;50.900;4.672;2022-10-22T21:20:33;14.80;99.90
9802;DHT22;4940;50.900;4.672;2022-10-22T21:23:02;14.80;99.90
9802;DHT22;4940;50.900;4.672;2022-10-22T21:25:30;14.80;99.90
9802;DHT22;4940;50.900;4.672;2022-10-22T21:35:21;14.90;99.90
9802;DHT22;4940;50.900;4.672;2022-10-22T21:37:49;14.90;99.90
9802;DHT22;4940;50.900;4.672;2022-10-22T21:40:17;14.90;99.90
9802;DHT22;4940;50.900;4.672;2022-10-22T21:42:44;14.90;99.90
9802;DHT22;4940;50.900;4.672;2022-10-22T21:45:11;14.90;99.90
9802;DHT22;4940;50.900;4.672;2022-10-22T21:50:06;14.80;99.90
9802;DHT22;4940;50.900;4.672;2022-10-22T21:57:30;14.90;99.90
9802;DHT22;4940;50.900;4.672;2022-10-22T22:04:53;14.90;99.90
9802;DHT22;4940;50.900;4.672;2022-10-22T22:14:44;14.80;99.90
9802;DHT22;4940;50.900;4.672;2022-10-22T22:31:58;14.50;99.90
9802;DHT22;4940;50.900;4.672;2022-10-22T22:39:22;14.50;99.90
9802;DHT22;4940;50.900;4.672;2022-10-22T22:49:13;14.50;99.90
9802;DHT22;4940;50.900;4.672;2022-10-22T22:54:09;14.40;99.90
9802;DHT22;4940;50.900;4.672;2022-10-22T22:59:04;14.40;99.90
9802;DHT22;4940;50.900;4.672;2022-10-22T23:01:33;14.40;99.90
9802;DHT22;4940;50.900;4.672;2022-10-22T23:04:02;14.30;99.90
9802;DHT22;4940;50.900;4.672;2022-10-22T23:06:32;14.30;99.90
9802;DHT22;4940;50.900;4.672;2022-10-22T23:09:01;14.20;99.90